Time;durP1;ratioP1;P1;durP2;ratioP2;P2;SDS_P1;SDS_P2;PMS_P1;PMS_P2;Temp;Humidity;BMP_temperature;BMP_pressure;BME280_temperature;BME280_humidity;BME280_pressure;Samples;Min_cycle;Max_cycle;Signal;HPM_P1;HPM_P2
2022/09/24 00:01:33;;;;;;;13.77;12.57;;;;;;;-142.65;82.23;50176.75;5093106;28;20189;-72
2022/09/24 00:04:01;;;;;;;16.33;14.87;;;;;;;;;;5093579;28;20668;-72
2022/09/24 00:06:29;;;;;;;15.93;14.30;;;;;;;-142.65;82.87;50164.81;5094148;28;20538;-72
2022/09/24 00:08:56;;;;;;;15.83;13.57;;;;;;;-142.65;83.21;50170.78;5093554;28;20581;-72
2022/09/24 00:11:24;;;;;;;23.37;13.97;;;;;;;;;;5093541;28;20178;-72
2022/09/24 00:13:52;;;;;;;20.23;14.47;;;;;;;-142.65;83.95;50170.78;5093381;28;20196;-72
2022/09/24 00:16:21;;;;;;;17.57;13.50;;;;;;;-142.65;83.98;50170.78;5093432;28;20190;-72
2022/09/24 00:18:47;;;;;;;14.87;13.47;;;;;;;;;;5093544;28;20212;-72
2022/09/24 00:21:25;;;;;;;16.50;14.40;;;;;;;-142.65;84.41;50164.81;5093689;28;20200;-72
2022/09/24 00:23:54;;;;;;;16.43;15.00;;;;;;;-142.65;84.72;50170.78;5093686;28;20170;-72
2022/09/24 00:29:06;;;;;;;15.73;13.73;;;;;;;;;;5075113;28;20300;-72
2022/09/24 00:31:32;;;;;;;15.37;13.80;;;;;;;-142.65;84.65;50176.75;5093559;28;20654;-72
2022/09/24 00:33:59;;;;;;;14.07;12.77;;;;;;;-142.65;84.70;50168.78;5093251;28;20194;-72
2022/09/24 00:36:26;;;;;;;16.50;14.87;;;;;;;-142.65;84.80;50164.81;5093266;28;20232;-72
2022/09/24 00:38:55;;;;;;;16.33;14.57;;;;;;;-142.65;85.08;50170.78;5093456;28;20205;-72
2022/09/24 00:41:26;;;;;;;16.57;14.90;;;;;;;-142.65;85.31;50170.78;5093166;28;20190;-72
2022/09/24 00:43:52;;;;;;;19.13;14.20;;;;;;;;;;5093518;28;20261;-72
2022/09/24 00:46:22;;;;;;;19.23;15.97;;;;;;;;;;5093439;28;20182;-72
2022/09/24 00:48:51;;;;;;;22.77;15.20;;;;;;;-142.65;85.48;50168.78;5093526;28;20208;-72
2022/09/24 00:51:19;;;;;;;17.47;15.70;;;;;;;;;;5093124;28;20200;-72
2022/09/24 00:53:49;;;;;;;23.00;17.43;;;;;;;-142.65;86.19;50170.78;5093091;28;20198;-72
2022/09/24 00:56:18;;;;;;;23.33;16.60;;;;;;;-142.65;86.55;50170.78;5093380;28;20185;-72
2022/09/24 00:58:51;;;;;;;24.67;17.93;;;;;;;-142.65;86.76;50170.78;5092980;28;20213;-72
2022/09/24 01:01:20;;;;;;;21.30;17.87;;;;;;;-142.65;87.74;50170.78;5093640;28;20176;-72
2022/09/24 01:03:49;;;;;;;20.57;17.63;;;;;;;-142.65;87.88;50168.78;5093020;28;20193;-73
2022/09/24 01:06:15;;;;;;;24.27;18.43;;;;;;;;;;5093526;28;20200;-72
2022/09/24 01:08:42;;;;;;;24.23;19.03;;;;;;;-142.65;88.29;50170.78;5092993;28;20578;-72
2022/09/24 01:11:17;;;;;;;27.40;20.50;;;;;;;;;;5093252;28;20674;-72
2022/09/24 01:13:47;;;;;;;22.83;19.13;;;;;;;;;;5093197;28;20689;-72
2022/09/24 01:16:31;;;;;;;30.33;19.20;;;;;;;-142.65;88.77;50168.78;5096743;28;20185;-72
2022/09/24 01:19:11;;;;;;;31.70;20.37;;;;;;;-142.65;88.96;50172.78;5096857;28;20202;-72
2022/09/24 01:21:49;;;;;;;25.20;19.43;;;;;;;-142.65;89.08;50160.81;5096967;28;20188;-72
2022/09/24 01:24:43;;;;;;;29.80;20.33;;;;;;;-142.65;89.35;50164.81;5096933;28;20177;-72
2022/09/24 01:27:21;;;;;;;33.40;21.60;;;;;;;;;;5096843;28;20181;-72
2022/09/24 01:30:03;;;;;;;26.63;21.60;;;;;;;-142.65;89.84;50170.78;5096429;28;20216;-72
2022/09/24 01:32:33;;;;;;;24.87;20.57;;;;;;;-142.65;90.08;50170.78;5096778;28;20177;-72
2022/09/24 01:35:06;;;;;;;32.20;21.27;;;;;;;-142.65;90.28;50172.78;5096983;28;20192;-72
2022/09/24 01:37:36;;;;;;;24.63;20.13;;;;;;;-142.65;90.68;50172.78;5096693;28;20169;-72
2022/09/24 01:40:04;;;;;;;34.47;21.97;;;;;;;;;;5096315;28;20212;-72
2022/09/24 01:42:32;;;;;;;27.40;20.37;;;;;;;;;;5096262;28;20197;-72
2022/09/24 01:45:00;;;;;;;24.20;19.47;;;;;;;-142.65;91.21;50170.78;5096449;28;20199;-72
2022/09/24 01:47:38;;;;;;;32.67;21.37;;;;;;;-142.65;91.25;50168.78;5096154;28;20718;-72
2022/09/24 01:50:08;;;;;;;24.50;19.60;;;;;;;-142.65;91.23;50168.78;5096074;28;20388;-72
2022/09/24 01:52:39;;;;;;;27.87;21.27;;;;;;;;;;5096060;28;20195;-72
2022/09/24 01:55:09;;;;;;;30.47;20.40;;;;;;;-142.65;91.05;50162.81;5096604;28;20621;-72
2022/09/24 01:57:44;;;;;;;26.50;19.83;;;;;;;-142.65;91.04;50170.78;5096527;28;20197;-72
2022/09/24 02:00:13;;;;;;;20.80;17.80;;;;;;;-142.65;91.30;50170.78;5096447;28;20209;-72
2022/09/24 02:03:19;;;;;;;25.80;19.53;;;;;;;-142.65;91.46;50172.78;5095865;28;20652;-72
2022/09/24 02:05:45;;;;;;;21.33;17.90;;;;;;;;;;5087951;28;20589;-72
2022/09/24 02:08:15;;;;;;;20.87;17.50;;;;;;;;;;5095695;28;20699;-72
2022/09/24 02:11:04;;;;;;;21.97;18.37;;;;;;;-142.65;91.48;50164.81;5095983;28;20200;-72
2022/09/24 02:13:38;;;;;;;20.93;18.07;;;;;;;-142.65;91.41;50162.81;5095677;28;20193;-72
2022/09/24 02:16:06;;;;;;;22.03;18.27;;;;;;;;;;5096207;28;20508;-72
2022/09/24 02:18:38;;;;;;;23.53;18.17;;;;;;;-142.65;91.36;50162.81;5095759;28;20224;-72
2022/09/24 02:21:12;;;;;;;28.67;18.40;;;;;;;-142.65;91.49;50168.78;5095555;28;20170;-72
2022/09/24 02:23:42;;;;;;;19.27;16.97;;;;;;;;;;5096046;28;20174;-72
2022/09/24 02:26:10;;;;;;;25.17;16.63;;;;;;;-142.65;91.29;50174.75;5095209;28;20177;-72
2022/09/24 02:28:36;;;;;;;20.00;15.97;;;;;;;-142.65;91.23;50164.81;5095289;28;20205;-73
2022/09/24 02:31:10;;;;;;;18.93;16.97;;;;;;;-142.65;91.27;50162.81;5095839;28;20652;-73
2022/09/24 02:36:27;;;;;;;19.20;16.60;;;;;;;-142.65;91.41;50168.78;5095524;28;20182;-73
2022/09/24 02:38:54;;;;;;;18.70;16.20;;;;;;;-142.65;91.48;50170.78;5095093;28;20683;-73
2022/09/24 02:41:22;;;;;;;20.10;16.43;;;;;;;-142.65;91.46;50170.78;5095169;28;20184;-73
2022/09/24 02:43:51;;;;;;;20.23;17.70;;;;;;;-142.65;91.47;50174.75;5095097;28;20195;-73
2022/09/24 02:46:18;;;;;;;19.80;17.17;;;;;;;-142.65;91.49;50164.81;5095309;28;20814;-73
2022/09/24 02:48:44;;;;;;;22.77;17.07;;;;;;;;;;5095259;28;20216;-73
2022/09/24 02:51:11;;;;;;;18.83;15.87;;;;;;;-142.65;91.61;50172.78;5094886;28;20212;-73
2022/09/24 02:53:37;;;;;;;18.47;15.60;;;;;;;-142.65;91.52;50170.78;5094885;28;20182;-73
2022/09/24 02:56:04;;;;;;;19.67;16.77;;;;;;;-142.65;91.59;50164.81;5095126;28;20196;-72
2022/09/24 02:58:30;;;;;;;32.90;21.17;;;;;;;;;;5094918;28;20205;-72
2022/09/24 03:00:56;;;;;;;32.93;21.97;;;;;;;-142.65;91.54;50164.81;5095282;28;20636;-72
2022/09/24 03:03:23;;;;;;;24.43;19.23;;;;;;;-142.65;91.71;50170.78;5094775;28;20186;-73
2022/09/24 03:05:51;;;;;;;20.27;18.13;;;;;;;;;;5094924;28;20186;-73
2022/09/24 03:08:19;;;;;;;17.53;15.63;;;;;;;-142.65;91.76;50168.78;5094501;28;20212;-72
2022/09/24 03:10:46;;;;;;;19.33;14.90;;;;;;;-142.65;91.79;50170.78;5094794;28;20216;-72
2022/09/24 03:13:12;;;;;;;24.70;18.37;;;;;;;-142.65;91.81;50174.75;5094471;28;20208;-72
2022/09/24 03:15:38;;;;;;;24.70;19.47;;;;;;;;;;5094474;28;20182;-72
2022/09/24 03:18:05;;;;;;;21.77;19.50;;;;;;;;;;5094309;28;20277;-72
2022/09/24 03:20:31;;;;;;;20.87;18.30;;;;;;;-142.65;91.91;50174.75;5094927;28;20227;-72
2022/09/24 03:22:58;;;;;;;20.03;16.83;;;;;;;;;;5094877;28;20190;-72
2022/09/24 03:25:24;;;;;;;23.20;17.43;;;;;;;-142.65;92.07;50168.78;5094272;28;20190;-72
2022/09/24 03:27:51;;;;;;;18.43;16.43;;;;;;;-142.65;92.12;50162.81;5094531;28;20182;-72
2022/09/24 03:33:02;;;;;;;20.07;16.87;;;;;;;-142.65;92.05;50168.78;5094171;28;20181;-72
2022/09/24 03:35:28;;;;;;;22.67;16.63;;;;;;;-142.65;92.14;50168.78;5094568;28;20208;-72
2022/09/24 03:37:54;;;;;;;21.43;16.67;;;;;;;;;;5093746;28;20201;-72
2022/09/24 03:40:21;;;;;;;20.07;15.97;;;;;;;;;;5094163;28;20193;-72
2022/09/24 03:42:47;;;;;;;24.93;17.63;;;;;;;-142.65;91.98;50170.78;5094377;28;20194;-72
2022/09/24 03:45:14;;;;;;;19.57;16.67;;;;;;;-142.65;92.04;50170.78;5094096;28;20178;-72
2022/09/24 03:47:41;;;;;;;21.57;17.40;;;;;;;-142.65;91.98;50170.78;5094281;28;20181;-72
2022/09/24 03:50:10;;;;;;;24.93;18.37;;;;;;;-142.65;91.95;50164.81;5093914;28;20209;-72
2022/09/24 03:52:39;;;;;;;24.23;18.43;;;;;;;;;;5094160;28;20189;-72
2022/09/24 03:55:06;;;;;;;23.70;18.47;;;;;;;-142.65;92.00;50172.78;5094027;28;20186;-72
2022/09/24 03:57:33;;;;;;;26.53;19.70;;;;;;;-142.65;91.91;50170.78;5094016;28;20200;-72
2022/09/24 03:59:59;;;;;;;19.10;16.70;;;;;;;-142.65;91.87;50170.78;5093634;28;20212;-72
2022/09/24 04:02:26;;;;;;;21.10;17.87;;;;;;;;;;5093976;28;20207;-72
2022/09/24 04:04:52;;;;;;;23.57;16.60;;;;;;;-142.65;91.84;50174.75;5094155;28;20682;-72
2022/09/24 04:07:19;;;;;;;20.30;17.10;;;;;;;-142.65;91.83;50170.78;5093604;28;20609;-72
2022/09/24 04:09:45;;;;;;;23.97;17.70;;;;;;;-142.65;91.79;50168.78;5093414;28;20575;-72
2022/09/24 04:12:12;;;;;;;23.30;17.27;;;;;;;-142.65;91.85;50170.78;5093636;28;20214;-72
2022/09/24 04:14:38;;;;;;;18.43;16.53;;;;;;;-142.65;91.94;50170.78;5093810;28;20180;-72
2022/09/24 04:17:04;;;;;;;18.60;16.13;;;;;;;-142.65;92.03;50170.78;5093512;28;20194;-72
2022/09/24 04:19:31;;;;;;;21.03;18.77;;;;;;;;;;5093342;28;20684;-72
2022/09/24 04:21:57;;;;;;;20.07;16.00;;;;;;;-142.65;92.03;50168.78;5093894;28;20181;-72
2022/09/24 04:24:23;;;;;;;24.37;17.37;;;;;;;-142.65;92.05;50170.78;5093651;28;20189;-72
2022/09/24 04:26:50;;;;;;;19.73;16.07;;;;;;;-142.65;92.16;50170.78;5093353;28;20182;-72
2022/09/24 04:29:17;;;;;;;18.43;16.53;;;;;;;-142.65;92.24;50180.75;5093262;28;20683;-72
2022/09/24 04:31:44;;;;;;;20.97;15.77;;;;;;;-142.65;92.21;50170.78;5093830;28;20562;-72
2022/09/24 04:34:11;;;;;;;19.67;15.47;;;;;;;-142.65;92.35;50170.78;5093564;28;20640;-72
2022/09/24 04:36:37;;;;;;;21.93;17.43;;;;;;;-142.65;92.39;50162.81;5094113;28;20595;-72
2022/09/24 04:39:04;;;;;;;20.50;18.30;;;;;;;;;;5093249;28;20687;-72
2022/09/24 04:41:31;;;;;;;23.73;17.23;;;;;;;-142.65;92.47;50168.78;5093238;28;20180;-72
2022/09/24 04:43:58;;;;;;;23.03;17.53;;;;;;;-142.65;92.52;50180.75;5093502;28;20211;-72
2022/09/24 04:46:24;;;;;;;19.50;16.40;;;;;;;-142.65;92.57;50164.81;5093158;28;20558;-72
2022/09/24 04:48:52;;;;;;;19.37;16.07;;;;;;;;;;5095347;28;20209;-72
2022/09/24 04:51:20;;;;;;;20.23;15.10;;;;;;;-142.65;92.53;50172.78;5097176;28;20215;-72
2022/09/24 04:53:48;;;;;;;19.77;15.60;;;;;;;-142.65;92.54;50170.78;5079273;28;20651;-72
2022/09/24 04:56:14;;;;;;;21.00;16.30;;;;;;;-142.65;92.62;50168.78;5097694;28;20182;-72
2022/09/24 04:58:40;;;;;;;21.77;17.23;;;;;;;-142.65;92.68;50170.78;5097350;28;20608;-72
2022/09/24 05:01:07;;;;;;;20.77;16.53;;;;;;;;;;5097363;28;20544;-72
2022/09/24 05:03:33;;;;;;;24.40;17.53;;;;;;;-142.65;92.89;50176.75;5097061;28;20190;-73
2022/09/24 05:06:00;;;;;;;21.33;16.77;;;;;;;;;;5096981;28;20200;-73
2022/09/24 05:08:27;;;;;;;22.70;15.80;;;;;;;-142.65;92.97;50170.78;5097268;28;20221;-72
2022/09/24 05:10:53;;;;;;;18.73;16.10;;;;;;;-142.65;92.98;50170.78;5096828;28;20210;-72
2022/09/24 05:13:20;;;;;;;18.73;15.47;;;;;;;-142.65;92.94;50170.78;5096950;28;20228;-72
2022/09/24 05:15:46;;;;;;;21.83;17.60;;;;;;;-142.65;92.86;50172.78;5097026;28;20186;-73
2022/09/24 05:18:13;;;;;;;27.33;18.07;;;;;;;-142.65;92.76;50174.75;5096909;28;20297;-72
2022/09/24 05:20:39;;;;;;;20.83;17.27;;;;;;;-142.65;92.62;50168.78;5096970;28;20178;-72
2022/09/24 05:23:06;;;;;;;20.07;17.17;;;;;;;-142.65;92.54;50178.75;5096594;28;20189;-72
2022/09/24 05:25:32;;;;;;;26.77;17.93;;;;;;;-142.65;92.43;50172.78;5078407;28;20725;-72
2022/09/24 05:27:58;;;;;;;20.00;16.73;;;;;;;-142.65;92.44;50170.78;5096747;28;20190;-72
2022/09/24 05:30:25;;;;;;;17.77;15.90;;;;;;;-142.65;92.51;50170.78;5096723;28;20694;-72
2022/09/24 05:32:52;;;;;;;19.03;15.80;;;;;;;-142.65;92.46;50164.81;5096991;28;20188;-72
2022/09/24 05:35:19;;;;;;;23.03;16.20;;;;;;;;;;5096708;28;20186;-72
2022/09/24 05:37:47;;;;;;;25.33;15.20;;;;;;;-142.65;92.44;50174.75;5096388;28;20181;-72
2022/09/24 05:43:00;;;;;;;28.53;16.00;;;;;;;-142.65;92.54;50174.75;5096247;28;20202;-72
2022/09/24 05:45:28;;;;;;;25.23;16.27;;;;;;;-142.65;92.52;50168.78;5096463;28;20189;-72
2022/09/24 05:47:55;;;;;;;19.63;15.90;;;;;;;;;;5096105;28;20182;-72
2022/09/24 05:50:21;;;;;;;23.37;16.17;;;;;;;-142.65;92.46;50170.78;5096033;28;20196;-72
2022/09/24 05:52:48;;;;;;;18.43;16.20;;;;;;;-142.65;92.50;50172.78;5096157;28;20186;-72
2022/09/24 05:55:14;;;;;;;19.50;15.80;;;;;;;;;;5096569;28;20190;-72
2022/09/24 05:57:40;;;;;;;20.80;16.63;;;;;;;-142.65;92.43;50168.78;5096240;28;20186;-72
2022/09/24 06:00:07;;;;;;;21.93;15.80;;;;;;;-142.65;92.41;50162.81;5095000;28;20206;-72
2022/09/24 06:02:40;;;;;;;28.80;16.83;;;;;;;-142.65;92.48;50168.78;5096191;28;20181;-72
2022/09/24 06:05:06;;;;;;;21.60;16.07;;;;;;;;;;5096632;28;20257;-73
2022/09/24 06:07:33;;;;;;;25.93;18.00;;;;;;;-142.65;92.51;50164.81;5096077;28;20192;-73
2022/09/24 06:09:59;;;;;;;17.53;15.63;;;;;;;-142.65;92.54;50170.78;5095595;28;20626;-72
2022/09/24 06:12:26;;;;;;;17.73;15.90;;;;;;;-142.65;92.62;50168.78;5095858;28;20209;-72
2022/09/24 06:14:52;;;;;;;17.93;15.87;;;;;;;;;;5095956;28;20545;-72
2022/09/24 06:17:20;;;;;;;19.17;16.37;;;;;;;-142.65;92.92;50168.78;5095501;28;20186;-73
2022/09/24 06:19:46;;;;;;;32.33;20.00;;;;;;;-142.65;92.69;50170.78;5096387;28;20209;-72
2022/09/24 06:22:13;;;;;;;23.67;18.60;;;;;;;-142.65;92.51;50164.81;5095782;28;20192;-72
2022/09/24 06:24:40;;;;;;;27.10;17.57;;;;;;;;;;5095475;28;20511;-70
2022/09/24 06:27:06;;;;;;;23.93;17.00;;;;;;;-142.65;92.74;50172.78;5095846;28;20190;-72
2022/09/24 06:29:32;;;;;;;28.73;17.17;;;;;;;;;;5095383;28;20206;-72
2022/09/24 06:32:00;;;;;;;21.03;17.90;;;;;;;-142.65;92.78;50172.78;5095844;28;20197;-72
2022/09/24 06:34:27;;;;;;;27.90;17.90;;;;;;;;;;5095603;28;20196;-72
2022/09/24 06:36:54;;;;;;;23.90;16.23;;;;;;;-142.65;92.87;50164.81;5095755;28;20183;-72
2022/09/24 06:39:21;;;;;;;23.07;16.40;;;;;;;;;;5095133;28;20219;-71
2022/09/24 06:41:49;;;;;;;18.27;16.30;;;;;;;-142.65;92.95;50170.78;5095120;28;20278;-71
2022/09/24 06:44:16;;;;;;;19.87;16.43;;;;;;;-142.65;92.94;50176.75;5095275;28;20537;-70
2022/09/24 06:46:42;;;;;;;24.57;16.30;;;;;;;;;;5095056;28;20190;-71
2022/09/24 06:49:09;;;;;;;18.87;16.47;;;;;;;-142.65;92.89;50170.78;5094927;28;20241;-70
2022/09/24 06:51:35;;;;;;;21.40;16.70;;;;;;;-142.65;92.96;50170.78;5095430;28;20206;-70
2022/09/24 06:54:02;;;;;;;42.63;18.50;;;;;;;;;;5095182;28;20182;-70
2022/09/24 06:56:29;;;;;;;29.53;15.50;;;;;;;;;;5094823;28;20201;-70
2022/09/24 06:58:56;;;;;;;21.23;16.37;;;;;;;;;;5095277;28;20201;-70
2022/09/24 07:01:22;;;;;;;26.03;16.17;;;;;;;-142.65;93.09;50162.81;5094691;28;20194;-70
2022/09/24 07:03:48;;;;;;;21.80;15.67;;;;;;;-142.65;92.99;50162.81;5095238;28;20189;-70
2022/09/24 07:06:15;;;;;;;16.47;14.73;;;;;;;;;;5094672;28;20181;-70
2022/09/24 07:08:42;;;;;;;19.70;16.70;;;;;;;;;;5094605;28;20210;-71
2022/09/24 07:11:08;;;;;;;18.73;15.17;;;;;;;-142.65;92.86;50164.81;5094458;28;20210;-71
2022/09/24 07:13:34;;;;;;;23.57;17.90;;;;;;;-142.65;92.78;50170.78;5094357;28;20546;-71
2022/09/24 07:16:01;;;;;;;29.10;19.60;;;;;;;;;;5076648;28;20197;-71
2022/09/24 07:18:28;;;;;;;27.00;20.03;;;;;;;-142.65;92.10;50172.78;5094426;28;20206;-70
2022/09/24 07:20:55;;;;;;;26.80;17.73;;;;;;;;;;5094338;28;20186;-70
2022/09/24 07:23:22;;;;;;;28.83;18.47;;;;;;;-142.65;91.51;50164.81;5094327;28;20220;-70
2022/09/24 07:25:50;;;;;;;21.53;16.90;;;;;;;-142.65;91.19;50170.78;5094236;28;20201;-70
2022/09/24 07:28:16;;;;;;;26.27;16.63;;;;;;;;;;5094467;28;20216;-70
2022/09/24 07:30:42;;;;;;;22.83;17.00;;;;;;;;;;5094102;28;20192;-71
2022/09/24 07:33:09;;;;;;;23.73;17.47;;;;;;;-142.65;90.37;50162.81;5094195;28;20174;-70
2022/09/24 07:35:38;;;;;;;23.73;17.73;;;;;;;;;;5094114;28;20211;-70
2022/09/24 07:38:10;;;;;;;22.73;17.00;;;;;;;-142.65;89.95;50170.78;5093959;28;20197;-70
2022/09/24 07:40:37;;;;;;;28.47;18.50;;;;;;;-142.65;89.79;50168.78;5094025;28;20539;-71
2022/09/24 07:43:05;;;;;;;27.77;18.33;;;;;;;-142.65;89.66;50164.81;5093967;28;20174;-73
2022/09/24 07:45:32;;;;;;;25.07;16.53;;;;;;;-142.65;89.57;50162.81;5093852;28;20671;-73
2022/09/24 07:48:04;;;;;;;19.23;16.17;;;;;;;-142.65;89.41;50168.78;5094151;28;20219;-73
2022/09/24 07:50:33;;;;;;;24.43;17.23;;;;;;;-142.65;89.07;50172.78;5094191;28;20174;-73
2022/09/24 07:53:00;;;;;;;21.50;16.53;;;;;;;-142.65;88.89;50168.78;5093739;28;20213;-73
2022/09/24 07:55:26;;;;;;;21.67;16.73;;;;;;;-142.65;88.71;50168.78;5093696;28;20652;-73
2022/09/24 07:57:54;;;;;;;24.10;16.87;;;;;;;-142.65;88.34;50162.81;5094027;28;20178;-73
2022/09/24 08:00:22;;;;;;;20.10;17.40;;;;;;;-142.65;88.20;50164.81;5093900;28;20640;-74
2022/09/24 08:02:49;;;;;;;25.70;16.10;;;;;;;;;;5093650;28;20260;-74
2022/09/24 08:05:16;;;;;;;18.20;14.73;;;;;;;;;;5093619;28;20182;-73
2022/09/24 08:07:51;;;;;;;17.33;14.57;;;;;;;-142.65;88.14;50162.81;5093909;28;20178;-73
2022/09/24 08:10:17;;;;;;;21.27;14.23;;;;;;;;;;5093764;28;20659;-73
2022/09/24 08:12:44;;;;;;;19.77;14.97;;;;;;;-142.65;88.08;50162.81;5107366;28;20247;-73
2022/09/24 08:15:10;;;;;;;20.30;14.87;;;;;;;;;;5113597;28;20654;-73
2022/09/24 08:17:36;;;;;;;18.07;16.23;;;;;;;-142.65;87.43;50162.81;5113867;28;20177;-73
2022/09/24 08:20:03;;;;;;;16.73;14.93;;;;;;;;;;5113335;28;20209;-73
2022/09/24 08:22:30;;;;;;;22.47;15.93;;;;;;;-142.65;87.32;50174.75;5113567;28;20192;-73
2022/09/24 08:24:56;;;;;;;22.30;15.33;;;;;;;;;;5113731;28;20197;-73
2022/09/24 08:27:24;;;;;;;22.27;15.43;;;;;;;-142.65;87.29;50164.81;5113982;28;20183;-73
2022/09/24 08:29:50;;;;;;;18.83;14.27;;;;;;;;;;5113473;28;20205;-73
2022/09/24 08:32:17;;;;;;;20.23;13.53;;;;;;;-142.65;86.66;50164.81;5113634;28;20212;-73
2022/09/24 08:34:44;;;;;;;18.13;13.43;;;;;;;;;;5113659;28;20192;-73
2022/09/24 08:37:11;;;;;;;17.50;14.37;;;;;;;-142.65;85.69;50170.78;5113889;28;20177;-73
2022/09/24 08:39:37;;;;;;;22.30;13.40;;;;;;;-142.65;85.43;50168.78;5113827;28;20216;-72
2022/09/24 08:42:38;;;;;;;15.90;14.03;;;;;;;-142.65;85.06;50168.78;5113827;28;20188;-72
2022/09/24 08:47:54;;;;;;;14.40;12.93;;;;;;;;;;5113482;28;20555;-72
2022/09/24 08:50:22;;;;;;;14.90;13.30;;;;;;;;;;5113525;28;20181;-73
2022/09/24 08:53:07;;;;;;;18.93;14.43;;;;;;;;;;5113443;28;20204;-73
2022/09/24 08:55:40;;;;;;;15.23;13.67;;;;;;;-142.65;80.85;50174.75;5113449;28;20181;-73
2022/09/24 08:58:16;;;;;;;16.40;13.97;;;;;;;-142.65;81.26;50170.78;5113946;28;20185;-73
2022/09/24 09:00:49;;;;;;;15.50;13.83;;;;;;;-142.65;81.01;50164.81;5113634;28;20185;-73
2022/09/24 09:03:24;;;;;;;15.97;14.03;;;;;;;;;;5095737;28;20178;-73
2022/09/24 09:06:05;;;;;;;24.17;14.47;;;;;;;;;;5113946;28;20184;-73
2022/09/24 09:08:41;;;;;;;17.83;13.80;;;;;;;-142.65;81.30;50168.78;5113697;28;20209;-73
2022/09/24 09:11:33;;;;;;;24.30;14.07;;;;;;;-142.65;80.96;50172.78;5113202;28;20209;-73
2022/09/24 09:14:10;;;;;;;20.57;14.47;;;;;;;-142.65;80.80;50168.78;5113267;28;20189;-73
2022/09/24 09:16:52;;;;;;;15.93;13.63;;;;;;;-142.65;80.94;50170.78;5113559;28;20178;-73
2022/09/24 09:19:22;;;;;;;14.50;13.00;;;;;;;;;;5113233;28;20216;-73
2022/09/24 09:21:57;;;;;;;17.50;13.40;;;;;;;;;;5113734;28;20189;-73
2022/09/24 09:24:26;;;;;;;15.33;11.87;;;;;;;;;;5113511;28;20175;-73
2022/09/24 09:26:54;;;;;;;13.37;11.97;;;;;;;-142.65;79.60;50164.81;5113397;28;20204;-73
2022/09/24 09:29:23;;;;;;;15.70;11.33;;;;;;;-142.65;79.46;50118.97;5113247;28;20208;-73
2022/09/24 09:32:08;;;;;;;9.30;8.70;;;;;;;;;;5113137;28;20205;-73
2022/09/24 09:34:41;;;;;;;10.53;9.93;;;;;;;;;;5113608;28;20620;-73
2022/09/24 09:37:22;;;;;;;11.13;10.37;;;;;;;-142.65;79.07;50170.78;5117479;28;20174;-73
2022/09/24 09:39:58;;;;;;;10.27;9.57;;;;;;;-142.65;78.53;50160.81;5116856;28;20248;-73
2022/09/24 09:42:39;;;;;;;8.77;8.47;;;;;;;-142.65;78.26;50170.78;5116748;28;20528;-72
2022/09/24 09:45:18;;;;;;;8.87;8.50;;;;;;;-142.65;78.58;50118.97;5117074;28;20173;-72
2022/09/24 09:47:56;;;;;;;8.50;8.03;;;;;;;-142.65;77.81;50170.78;5116641;28;20185;-72
2022/09/24 09:50:43;;;;;;;7.23;7.03;;;;;;;-142.65;76.54;50164.81;5116854;28;20173;-72
2022/09/24 09:53:21;;;;;;;7.67;7.30;;;;;;;-142.65;78.12;50168.78;5116417;28;20280;-73
2022/09/24 09:55:57;;;;;;;8.20;7.70;;;;;;;-142.65;76.69;50172.78;5117029;28;20181;-73
2022/09/24 09:58:26;;;;;;;8.90;8.40;;;;;;;-142.65;77.35;50164.81;5116974;28;20219;-72
2022/09/24 10:01:04;;;;;;;7.83;7.53;;;;;;;-142.65;76.66;50170.78;5116330;28;20181;-72
2022/09/24 10:03:45;;;;;;;9.33;8.73;;;;;;;-142.65;76.28;50164.81;5116334;28;20273;-72
2022/09/24 10:06:21;;;;;;;11.00;9.93;;;;;;;-142.65;77.41;50164.81;5116498;28;20174;-72
2022/09/24 10:08:47;;;;;;;9.60;9.10;;;;;;;;;;5116617;28;20211;-73
2022/09/24 10:11:15;;;;;;;7.53;7.23;;;;;;;-142.65;75.75;50164.81;5116410;28;20662;-73
2022/09/24 10:13:42;;;;;;;8.97;8.37;;;;;;;-142.65;76.59;50164.81;5115997;28;20276;-73
2022/09/24 10:16:11;;;;;;;9.50;8.87;;;;;;;-142.65;75.16;50164.81;5116042;28;20221;-73
2022/09/24 10:18:49;;;;;;;9.30;8.80;;;;;;;-142.65;75.87;50164.81;5116008;28;20212;-73
2022/09/24 10:21:36;;;;;;;9.57;8.90;;;;;;;-142.65;75.24;50164.81;5115900;28;20285;-73
2022/09/24 10:24:03;;;;;;;8.87;8.47;;;;;;;;;;5115883;28;20260;-73
2022/09/24 10:26:37;;;;;;;9.90;8.67;;;;;;;;;;5116069;28;20288;-74
2022/09/24 10:31:58;;;;;;;11.03;8.60;;;;;;;-142.65;75.48;50164.81;5115926;28;20190;-73
2022/09/24 10:34:27;;;;;;;10.20;9.50;;;;;;;-142.65;76.04;50168.78;5115651;28;20182;-73
2022/09/24 10:37:02;;;;;;;10.53;9.57;;;;;;;-142.65;74.12;50170.78;5115621;28;20655;-73
2022/09/24 10:39:36;;;;;;;10.23;9.60;;;;;;;-142.65;74.78;50164.81;5115772;28;20213;-73
2022/09/24 10:42:02;;;;;;;9.77;8.87;;;;;;;-142.65;75.75;50164.81;5115810;28;20184;-73
2022/09/24 10:44:33;;;;;;;10.07;9.53;;;;;;;;;;5115421;28;20185;-74
2022/09/24 10:47:26;;;;;;;10.27;9.53;;;;;;;-142.65;75.76;50174.75;5115391;28;20184;-74
2022/09/24 10:49:52;;;;;;;10.37;9.73;;;;;;;;;;5115324;28;20212;-73
2022/09/24 10:52:56;;;;;;;10.97;9.43;;;;;;;-142.65;76.80;50164.81;5115478;28;20220;-73
2022/09/24 10:55:25;;;;;;;13.90;10.47;;;;;;;;;;5115569;28;20511;-74
2022/09/24 10:58:12;;;;;;;10.33;9.13;;;;;;;-142.65;76.31;50164.81;5115231;28;20177;-73
2022/09/24 11:00:50;;;;;;;10.10;9.30;;;;;;;;;;5115231;28;20173;-73
2022/09/24 11:03:17;;;;;;;10.90;9.83;;;;;;;;;;5115523;28;20195;-73
2022/09/24 11:06:09;;;;;;;10.50;9.70;;;;;;;-142.65;76.72;50170.78;5115127;28;20185;-73
2022/09/24 11:09:02;;;;;;;10.77;9.17;;;;;;;-142.65;76.89;50168.78;5115283;28;20205;-73
2022/09/24 11:11:40;;;;;;;10.90;9.97;;;;;;;-142.65;77.32;50168.78;5114969;28;20200;-73
2022/09/24 11:14:23;;;;;;;10.93;10.23;;;;;;;;;;5115505;28;20189;-73
2022/09/24 11:16:57;;;;;;;9.73;9.13;;;;;;;;;;5115352;28;20543;-73
2022/09/24 11:19:47;;;;;;;10.57;9.80;;;;;;;-142.65;77.63;50168.78;5114731;28;20209;-73
2022/09/24 11:22:15;;;;;;;11.87;10.10;;;;;;;;;;5115381;28;20170;-75
2022/09/24 11:25:06;;;;;;;9.40;8.80;;;;;;;-142.65;76.61;50168.78;5114892;28;20182;-74
2022/09/24 11:28:03;;;;;;;9.80;9.17;;;;;;;-142.65;77.70;50174.75;5114931;28;20184;-73
2022/09/24 11:30:46;;;;;;;10.70;9.87;;;;;;;;;;5114901;28;20243;-73
2022/09/24 11:33:25;;;;;;;9.93;9.40;;;;;;;-142.65;78.66;50162.81;5114763;28;20200;-73
2022/09/24 11:35:55;;;;;;;11.20;10.17;;;;;;;;;;5114844;28;20173;-73
2022/09/24 11:38:26;;;;;;;11.10;10.27;;;;;;;;;;5114672;28;20567;-73
2022/09/24 11:41:16;;;;;;;11.10;10.17;;;;;;;-142.65;78.83;50172.78;5114646;28;20547;-73
2022/09/24 11:44:25;;;;;;;11.33;10.63;;;;;;;-142.65;77.46;50168.78;5114324;28;20181;-73
2022/09/24 11:47:29;;;;;;;11.37;10.67;;;;;;;-142.65;76.69;50162.81;5114541;28;20184;-72
2022/09/24 11:50:11;;;;;;;11.23;10.27;;;;;;;-142.65;75.98;50168.78;5114376;28;20559;-73
2022/09/24 11:52:42;;;;;;;15.23;12.00;;;;;;;;;;5114204;28;20204;-73
2022/09/24 11:55:19;;;;;;;13.00;11.83;;;;;;;;;;5114384;28;20547;-73
2022/09/24 11:58:14;;;;;;;12.67;11.70;;;;;;;-142.65;75.94;50162.81;5113666;28;20267;-73
2022/09/24 12:00:48;;;;;;;11.30;10.57;;;;;;;-142.65;76.19;50170.78;5114132;28;20183;-73
2022/09/24 12:03:18;;;;;;;12.10;11.20;;;;;;;;;;5114307;28;20169;-73
2022/09/24 12:06:05;;;;;;;11.47;10.50;;;;;;;-142.65;76.36;50162.81;5114582;28;20611;-73
2022/09/24 12:08:40;;;;;;;13.63;9.30;;;;;;;-142.65;76.51;50170.78;5114149;28;20201;-73
2022/09/24 12:11:09;;;;;;;15.77;11.40;;;;;;;;;;5114995;28;20513;-73
2022/09/24 12:14:01;;;;;;;11.00;10.07;;;;;;;-142.65;75.57;50162.81;5113852;28;20209;-73
2022/09/24 12:16:32;;;;;;;12.17;11.23;;;;;;;-142.65;76.13;50168.78;5114223;28;20173;-73
2022/09/24 12:19:21;;;;;;;11.77;10.63;;;;;;;-142.65;75.87;50168.78;5113812;28;20205;-73
2022/09/24 12:21:49;;;;;;;9.90;9.30;;;;;;;;;;5114377;28;20185;-73
2022/09/24 12:24:19;;;;;;;8.77;8.37;;;;;;;;;;5113769;28;20551;-73
2022/09/24 12:26:47;;;;;;;7.77;7.67;;;;;;;-142.65;74.46;50162.81;5113775;28;20256;-73
2022/09/24 12:35:46;;;;;;;8.80;8.50;;;;;;;-142.65;78.51;50170.78;5114037;28;20177;-74
2022/09/24 12:38:20;;;;;;;9.87;9.37;;;;;;;;;;5113856;28;20187;-73